Terminal Aerodrome Forecast
Issued by NWS Jackson, MS

Home | Current Version | Previous Version | Text Only | Print | Product List | Glossary On
Versions: 1 2 3 4 5 6 7 8 9 10 11 12 13 14 15 16 17 18
000
FTUS44 KMEG 232320
TAFTUP
TAF
KTUP 232320Z 2400/2424 20015G25KT P6SM VCSH BKN015
     FM240300 21012KT P6SM SCT025 BKN250
     FM240800 22012G18KT P6SM BKN015
     FM241500 29012G18KT P6SM BKN025
     FM242100 26015G25KT P6SM FEW030 SCT250=

USA.gov is the U.S. government's official web portal to all federal, state and local government web resources and services.